sensor_id;sensor_type;location;lat;lon;timestamp;pressure;altitude;pressure_sealevel;temperature;humidity
19023;BME280;35226;48.606;8.858;2023-12-20T00:00:54;96286.53;;;4.27;100.00
19023;BME280;35226;48.606;8.858;2023-12-20T00:03:19;96287.28;;;4.31;100.00
19023;BME280;35226;48.606;8.858;2023-12-20T00:05:45;96287.69;;;4.29;100.00
19023;BME280;35226;48.606;8.858;2023-12-20T00:08:11;96278.63;;;4.36;100.00
19023;BME280;35226;48.606;8.858;2023-12-20T00:10:36;96263.38;;;4.38;100.00
19023;BME280;35226;48.606;8.858;2023-12-20T00:13:02;96270.44;;;4.36;100.00
19023;BME280;35226;48.606;8.858;2023-12-20T00:15:28;96264.16;;;4.39;100.00
19023;BME280;35226;48.606;8.858;2023-12-20T00:17:53;96260.25;;;4.40;100.00
19023;BME280;35226;48.606;8.858;2023-12-20T00:20:19;96259.97;;;4.27;100.00
19023;BME280;35226;48.606;8.858;2023-12-20T00:22:44;96268.56;;;4.26;100.00
19023;BME280;35226;48.606;8.858;2023-12-20T00:25:10;96268.94;;;4.28;100.00
19023;BME280;35226;48.606;8.858;2023-12-20T00:27:36;96277.88;;;4.32;100.00
19023;BME280;35226;48.606;8.858;2023-12-20T00:30:01;96270.03;;;4.37;100.00
19023;BME280;35226;48.606;8.858;2023-12-20T00:32:27;96262.59;;;4.38;100.00
19023;BME280;35226;48.606;8.858;2023-12-20T00:34:52;96261.84;;;4.34;100.00
19023;BME280;35226;48.606;8.858;2023-12-20T00:37:18;96260.28;;;4.33;100.00
19023;BME280;35226;48.606;8.858;2023-12-20T00:39:43;96252.88;;;4.33;100.00
19023;BME280;35226;48.606;8.858;2023-12-20T00:42:09;96245.44;;;4.34;100.00
19023;BME280;35226;48.606;8.858;2023-12-20T00:44:34;96244.66;;;4.33;100.00
19023;BME280;35226;48.606;8.858;2023-12-20T00:47:00;96243.88;;;4.33;100.00
19023;BME280;35226;48.606;8.858;2023-12-20T00:49:26;96241.50;;;4.38;100.00
19023;BME280;35226;48.606;8.858;2023-12-20T00:51:52;96248.94;;;4.34;100.00
19023;BME280;35226;48.606;8.858;2023-12-20T00:54:18;96253.31;;;4.28;100.00
19023;BME280;35226;48.606;8.858;2023-12-20T00:56:43;96256.44;;;4.27;100.00
19023;BME280;35226;48.606;8.858;2023-12-20T00:59:09;96267.44;;;4.20;100.00
19023;BME280;35226;48.606;8.858;2023-12-20T01:01:35;96259.19;;;4.23;100.00
19023;BME280;35226;48.606;8.858;2023-12-20T01:04:00;96271.28;;;4.26;100.00
19023;BME280;35226;48.606;8.858;2023-12-20T01:06:26;96280.25;;;4.30;100.00
19023;BME280;35226;48.606;8.858;2023-12-20T01:08:51;96274.81;;;4.23;100.00
19023;BME280;35226;48.606;8.858;2023-12-20T01:11:17;96284.97;;;4.22;100.00
19023;BME280;35226;48.606;8.858;2023-12-20T01:13:42;96281.13;;;4.16;100.00
19023;BME280;35226;48.606;8.858;2023-12-20T01:16:10;96282.28;;;4.19;100.00
19023;BME280;35226;48.606;8.858;2023-12-20T01:18:36;96284.66;;;4.17;100.00
19023;BME280;35226;48.606;8.858;2023-12-20T01:21:05;96282.28;;;4.19;100.00
19023;BME280;35226;48.606;8.858;2023-12-20T01:23:32;96274.41;;;4.28;100.00
19023;BME280;35226;48.606;8.858;2023-12-20T01:25:58;96274.03;;;4.22;100.00
19023;BME280;35226;48.606;8.858;2023-12-20T01:28:25;96277.16;;;4.24;100.00
19023;BME280;35226;48.606;8.858;2023-12-20T01:30:51;96279.50;;;4.26;100.00
19023;BME280;35226;48.606;8.858;2023-12-20T01:33:16;96278.31;;;4.27;100.00
19023;BME280;35226;48.606;8.858;2023-12-20T01:35:42;96278.31;;;4.27;100.00
19023;BME280;35226;48.606;8.858;2023-12-20T01:38:07;96275.97;;;4.29;100.00
19023;BME280;35226;48.606;8.858;2023-12-20T01:40:33;96274.00;;;4.29;100.00
19023;BME280;35226;48.606;8.858;2023-12-20T01:43:02;96277.09;;;4.31;100.00
19023;BME280;35226;48.606;8.858;2023-12-20T01:45:31;96272.38;;;4.35;100.00
19023;BME280;35226;48.606;8.858;2023-12-20T01:47:58;96272.41;;;4.32;100.00
19023;BME280;35226;48.606;8.858;2023-12-20T01:50:24;96277.09;;;4.35;100.00
19023;BME280;35226;48.606;8.858;2023-12-20T01:52:50;96275.16;;;4.32;100.00
19023;BME280;35226;48.606;8.858;2023-12-20T01:55:19;96275.91;;;4.32;100.00
19023;BME280;35226;48.606;8.858;2023-12-20T01:57:45;96262.25;;;4.32;100.00
19023;BME280;35226;48.606;8.858;2023-12-20T02:00:13;96253.63;;;4.37;100.00
19023;BME280;35226;48.606;8.858;2023-12-20T02:02:40;96253.66;;;4.34;100.00
19023;BME280;35226;48.606;8.858;2023-12-20T02:05:06;96251.69;;;4.34;100.00
19023;BME280;35226;48.606;8.858;2023-12-20T02:07:32;96253.25;;;4.32;100.00
19023;BME280;35226;48.606;8.858;2023-12-20T02:10:03;96255.97;;;4.39;100.00
19023;BME280;35226;48.606;8.858;2023-12-20T02:12:31;96252.47;;;4.35;100.00
19023;BME280;35226;48.606;8.858;2023-12-20T02:14:56;96250.50;;;4.39;100.00
19023;BME280;35226;48.606;8.858;2023-12-20T02:17:23;96258.72;;;4.35;100.00
19023;BME280;35226;48.606;8.858;2023-12-20T02:19:49;96256.75;;;4.36;100.00
19023;BME280;35226;48.606;8.858;2023-12-20T02:22:15;96250.50;;;4.35;100.00
19023;BME280;35226;48.606;8.858;2023-12-20T02:24:40;96254.81;;;4.36;100.00
19023;BME280;35226;48.606;8.858;2023-12-20T02:27:07;96254.47;;;4.31;100.00
19023;BME280;35226;48.606;8.858;2023-12-20T02:29:34;96250.13;;;4.37;100.00
19023;BME280;35226;48.606;8.858;2023-12-20T02:31:59;96263.41;;;4.35;100.00
19023;BME280;35226;48.606;8.858;2023-12-20T02:34:25;96250.91;;;4.34;100.00
19023;BME280;35226;48.606;8.858;2023-12-20T02:36:50;96245.81;;;4.36;100.00
19023;BME280;35226;48.606;8.858;2023-12-20T02:39:16;96247.38;;;4.37;100.00
19023;BME280;35226;48.606;8.858;2023-12-20T02:41:42;96240.78;;;4.31;100.00
19023;BME280;35226;48.606;8.858;2023-12-20T02:44:07;96243.47;;;4.34;100.00
19023;BME280;35226;48.606;8.858;2023-12-20T02:46:33;96249.00;;;4.31;100.00
19023;BME280;35226;48.606;8.858;2023-12-20T02:48:59;96247.00;;;4.31;100.00
19023;BME280;35226;48.606;8.858;2023-12-20T02:51:24;96251.38;;;4.25;100.00
19023;BME280;35226;48.606;8.858;2023-12-20T02:53:50;96256.06;;;4.25;100.00
19023;BME280;35226;48.606;8.858;2023-12-20T02:56:15;96249.81;;;4.28;100.00
19023;BME280;35226;48.606;8.858;2023-12-20T02:58:41;96256.84;;;4.25;100.00
19023;BME280;35226;48.606;8.858;2023-12-20T03:01:06;96265.44;;;4.24;100.00
19023;BME280;35226;48.606;8.858;2023-12-20T03:03:32;96259.56;;;4.25;100.00
19023;BME280;35226;48.606;8.858;2023-12-20T03:05:57;96263.50;;;4.24;100.00
19023;BME280;35226;48.606;8.858;2023-12-20T03:08:23;96268.56;;;4.26;100.00
19023;BME280;35226;48.606;8.858;2023-12-20T03:10:48;96265.81;;;4.26;100.00
19023;BME280;35226;48.606;8.858;2023-12-20T03:13:14;96272.06;;;4.26;100.00
19023;BME280;35226;48.606;8.858;2023-12-20T03:15:40;96271.28;;;4.26;100.00
19023;BME280;35226;48.606;8.858;2023-12-20T03:18:05;96270.13;;;4.23;100.00
19023;BME280;35226;48.606;8.858;2023-12-20T03:20:31;96273.31;;;4.18;100.00
19023;BME280;35226;48.606;8.858;2023-12-20T03:23:00;96269.34;;;4.23;100.00
19023;BME280;35226;48.606;8.858;2023-12-20T03:25:26;96275.22;;;4.21;100.00
19023;BME280;35226;48.606;8.858;2023-12-20T03:27:52;96283.44;;;4.21;100.00
19023;BME280;35226;48.606;8.858;2023-12-20T03:30:18;96290.09;;;4.20;100.00
19023;BME280;35226;48.606;8.858;2023-12-20T03:32:43;96295.56;;;4.20;100.00
19023;BME280;35226;48.606;8.858;2023-12-20T03:35:09;96290.50;;;4.19;100.00
19023;BME280;35226;48.606;8.858;2023-12-20T03:37:34;96296.38;;;4.17;100.00
19023;BME280;35226;48.606;8.858;2023-12-20T03:40:00;96300.66;;;4.15;100.00
19023;BME280;35226;48.606;8.858;2023-12-20T03:42:26;96302.66;;;4.11;100.00
19023;BME280;35226;48.606;8.858;2023-12-20T03:44:51;96308.94;;;4.07;100.00
19023;BME280;35226;48.606;8.858;2023-12-20T03:47:17;96312.84;;;4.06;100.00
19023;BME280;35226;48.606;8.858;2023-12-20T03:49:42;96306.97;;;4.08;100.00
19023;BME280;35226;48.606;8.858;2023-12-20T03:52:08;96303.09;;;4.02;100.00
19023;BME280;35226;48.606;8.858;2023-12-20T03:54:35;96313.63;;;4.07;100.00
19023;BME280;35226;48.606;8.858;2023-12-20T03:57:01;96307.75;;;4.05;100.00
19023;BME280;35226;48.606;8.858;2023-12-20T03:59:26;96307.81;;;4.01;100.00
19023;BME280;35226;48.606;8.858;2023-12-20T04:01:52;96314.41;;;4.04;100.00
19023;BME280;35226;48.606;8.858;2023-12-20T04:04:17;96311.69;;;4.04;100.00
19023;BME280;35226;48.606;8.858;2023-12-20T04:06:43;96311.69;;;4.04;100.00
19023;BME280;35226;48.606;8.858;2023-12-20T04:09:09;96319.13;;;4.00;100.00
19023;BME280;35226;48.606;8.858;2023-12-20T04:11:34;96326.56;;;3.99;100.00
19023;BME280;35226;48.606;8.858;2023-12-20T04:14:00;96319.13;;;4.00;100.00
19023;BME280;35226;48.606;8.858;2023-12-20T04:16:26;96312.91;;;3.92;100.00
19023;BME280;35226;48.606;8.858;2023-12-20T04:18:51;96317.19;;;3.93;100.00
19023;BME280;35226;48.606;8.858;2023-12-20T04:21:17;96326.97;;;3.94;100.00
19023;BME280;35226;48.606;8.858;2023-12-20T04:23:43;96320.72;;;3.94;100.00
19023;BME280;35226;48.606;8.858;2023-12-20T04:26:09;96322.66;;;3.97;100.00
19023;BME280;35226;48.606;8.858;2023-12-20T04:28:34;96309.44;;;3.88;100.00
19023;BME280;35226;48.606;8.858;2023-12-20T04:31:00;96303.19;;;3.88;100.00
19023;BME280;35226;48.606;8.858;2023-12-20T04:33:25;96297.34;;;3.89;100.00
19023;BME280;35226;48.606;8.858;2023-12-20T04:35:51;96309.84;;;3.87;100.00
19023;BME280;35226;48.606;8.858;2023-12-20T04:38:16;96310.22;;;3.89;100.00
19023;BME280;35226;48.606;8.858;2023-12-20T04:40:42;96315.31;;;3.83;100.00
19023;BME280;35226;48.606;8.858;2023-12-20T04:43:07;96327.41;;;3.86;100.00
19023;BME280;35226;48.606;8.858;2023-12-20T04:45:34;96316.06;;;3.87;100.00
19023;BME280;35226;48.606;8.858;2023-12-20T04:48:00;96320.81;;;3.80;100.00
19023;BME280;35226;48.606;8.858;2023-12-20T04:50:26;96324.28;;;3.84;100.00
19023;BME280;35226;48.606;8.858;2023-12-20T04:52:51;96330.13;;;3.86;100.00
19023;BME280;35226;48.606;8.858;2023-12-20T04:55:17;96340.72;;;3.80;100.00
19023;BME280;35226;48.606;8.858;2023-12-20T04:57:43;96341.50;;;3.77;100.00
19023;BME280;35226;48.606;8.858;2023-12-20T05:00:09;96337.16;;;3.83;100.00
19023;BME280;35226;48.606;8.858;2023-12-20T05:02:37;96339.94;;;3.76;100.00
19023;BME280;35226;48.606;8.858;2023-12-20T05:05:03;96341.50;;;3.81;100.00
19023;BME280;35226;48.606;8.858;2023-12-20T05:07:29;96333.31;;;3.77;100.00
19023;BME280;35226;48.606;8.858;2023-12-20T05:09:54;96330.19;;;3.75;100.00
19023;BME280;35226;48.606;8.858;2023-12-20T05:12:20;96348.13;;;3.80;100.00
19023;BME280;35226;48.606;8.858;2023-12-20T05:14:46;96351.31;;;3.71;100.00
19023;BME280;35226;48.606;8.858;2023-12-20T05:17:11;96357.94;;;3.70;100.00
19023;BME280;35226;48.606;8.858;2023-12-20T05:19:37;96367.66;;;3.78;100.00
19023;BME280;35226;48.606;8.858;2023-12-20T05:22:03;96373.13;;;3.78;100.00
19023;BME280;35226;48.606;8.858;2023-12-20T05:24:28;96375.84;;;3.75;100.00
19023;BME280;35226;48.606;8.858;2023-12-20T05:26:54;96380.94;;;3.76;100.00
19023;BME280;35226;48.606;8.858;2023-12-20T05:29:20;96379.75;;;3.77;100.00
19023;BME280;35226;48.606;8.858;2023-12-20T05:31:45;96378.19;;;3.80;100.00
19023;BME280;35226;48.606;8.858;2023-12-20T05:34:11;96373.88;;;3.82;100.00
19023;BME280;35226;48.606;8.858;2023-12-20T05:36:37;96379.38;;;3.79;100.00
19023;BME280;35226;48.606;8.858;2023-12-20T05:39:04;96378.97;;;3.77;100.00
19023;BME280;35226;48.606;8.858;2023-12-20T05:41:30;96386.00;;;3.74;100.00
19023;BME280;35226;48.606;8.858;2023-12-20T05:43:56;96389.13;;;3.80;100.00
19023;BME280;35226;48.606;8.858;2023-12-20T05:46:23;96405.53;;;3.80;100.00
19023;BME280;35226;48.606;8.858;2023-12-20T05:48:49;96397.31;;;3.80;100.00
19023;BME280;35226;48.606;8.858;2023-12-20T05:51:15;96394.97;;;3.78;100.00
19023;BME280;35226;48.606;8.858;2023-12-20T05:53:40;96392.25;;;3.78;100.00
19023;BME280;35226;48.606;8.858;2023-12-20T05:56:06;96398.09;;;3.80;100.00
19023;BME280;35226;48.606;8.858;2023-12-20T05:58:32;96398.50;;;3.79;100.00
19023;BME280;35226;48.606;8.858;2023-12-20T06:00:58;96399.66;;;3.81;100.00
19023;BME280;35226;48.606;8.858;2023-12-20T06:03:23;96401.59;;;3.84;100.00
19023;BME280;35226;48.606;8.858;2023-12-20T06:05:52;96398.06;;;3.84;100.00
19023;BME280;35226;48.606;8.858;2023-12-20T06:08:17;96416.06;;;3.81;100.00
19023;BME280;35226;48.606;8.858;2023-12-20T06:10:46;96419.97;;;3.80;100.00
19023;BME280;35226;48.606;8.858;2023-12-20T06:13:12;96423.47;;;3.77;100.00
19023;BME280;35226;48.606;8.858;2023-12-20T06:15:39;96417.63;;;3.75;100.00
19023;BME280;35226;48.606;8.858;2023-12-20T06:18:05;96415.28;;;3.73;100.00
19023;BME280;35226;48.606;8.858;2023-12-20T06:20:32;96416.44;;;3.76;100.00
19023;BME280;35226;48.606;8.858;2023-12-20T06:22:58;96416.09;;;3.63;100.00
19023;BME280;35226;48.606;8.858;2023-12-20T06:25:24;96417.66;;;3.68;100.00
19023;BME280;35226;48.606;8.858;2023-12-20T06:27:49;96411.81;;;3.62;100.00
19023;BME280;35226;48.606;8.858;2023-12-20T06:30:18;96406.75;;;3.61;100.00
19023;BME280;35226;48.606;8.858;2023-12-20T06:32:44;96408.72;;;3.53;100.00
19023;BME280;35226;48.606;8.858;2023-12-20T06:35:09;96414.19;;;3.60;100.00
19023;BME280;35226;48.606;8.858;2023-12-20T06:37:35;96418.81;;;3.63;100.00
19023;BME280;35226;48.606;8.858;2023-12-20T06:40:01;96412.63;;;3.59;100.00
19023;BME280;35226;48.606;8.858;2023-12-20T06:42:26;96425.50;;;3.55;100.00
19023;BME280;35226;48.606;8.858;2023-12-20T06:44:52;96427.06;;;3.56;100.00
19023;BME280;35226;48.606;8.858;2023-12-20T06:47:17;96431.75;;;3.52;100.00
19023;BME280;35226;48.606;8.858;2023-12-20T06:49:43;96426.69;;;3.51;100.00
19023;BME280;35226;48.606;8.858;2023-12-20T06:52:08;96426.69;;;3.51;100.00
19023;BME280;35226;48.606;8.858;2023-12-20T06:54:34;96441.13;;;3.51;100.00
19023;BME280;35226;48.606;8.858;2023-12-20T06:57:00;96438.00;;;3.46;100.00
19023;BME280;35226;48.606;8.858;2023-12-20T06:59:25;96450.47;;;3.54;100.00
19023;BME280;35226;48.606;8.858;2023-12-20T07:01:51;96453.19;;;3.57;100.00
19023;BME280;35226;48.606;8.858;2023-12-20T07:04:17;96459.81;;;3.53;100.00
19023;BME280;35226;48.606;8.858;2023-12-20T07:06:50;96460.22;;;3.55;100.00
19023;BME280;35226;48.606;8.858;2023-12-20T07:09:17;96457.50;;;3.55;100.00
19023;BME280;35226;48.606;8.858;2023-12-20T07:11:42;96467.25;;;3.56;100.00
19023;BME280;35226;48.606;8.858;2023-12-20T07:14:08;96464.13;;;3.54;100.00
19023;BME280;35226;48.606;8.858;2023-12-20T07:16:34;96467.25;;;3.56;100.00
19023;BME280;35226;48.606;8.858;2023-12-20T07:19:00;96473.50;;;3.56;100.00
19023;BME280;35226;48.606;8.858;2023-12-20T07:21:25;96474.28;;;3.57;100.00
19023;BME280;35226;48.606;8.858;2023-12-20T07:23:51;96475.06;;;3.57;100.00
19023;BME280;35226;48.606;8.858;2023-12-20T07:26:17;96481.69;;;3.60;100.00
19023;BME280;35226;48.606;8.858;2023-12-20T07:28:43;96484.00;;;3.65;100.00
19023;BME280;35226;48.606;8.858;2023-12-20T07:31:08;96494.53;;;3.66;100.00
19023;BME280;35226;48.606;8.858;2023-12-20T07:33:34;96496.09;;;3.64;100.00
19023;BME280;35226;48.606;8.858;2023-12-20T07:36:00;96501.56;;;3.64;100.00
19023;BME280;35226;48.606;8.858;2023-12-20T07:38:26;96503.53;;;3.63;100.00
19023;BME280;35226;48.606;8.858;2023-12-20T07:40:51;96504.69;;;3.66;100.00
19023;BME280;35226;48.606;8.858;2023-12-20T07:43:17;96507.03;;;3.67;100.00
19023;BME280;35226;48.606;8.858;2023-12-20T07:45:42;96508.22;;;3.70;100.00
19023;BME280;35226;48.606;8.858;2023-12-20T07:48:08;96505.88;;;3.72;100.00
19023;BME280;35226;48.606;8.858;2023-12-20T07:50:33;96505.06;;;3.75;100.00
19023;BME280;35226;48.606;8.858;2023-12-20T07:52:59;96513.25;;;3.75;100.00
19023;BME280;35226;48.606;8.858;2023-12-20T07:55:26;96514.03;;;3.76;100.00
19023;BME280;35226;48.606;8.858;2023-12-20T07:57:52;96526.53;;;3.77;100.00
19023;BME280;35226;48.606;8.858;2023-12-20T08:00:18;96522.25;;;3.79;100.00
19023;BME280;35226;48.606;8.858;2023-12-20T08:02:44;96521.84;;;3.81;100.00
19023;BME280;35226;48.606;8.858;2023-12-20T08:05:09;96528.88;;;3.82;100.00
19023;BME280;35226;48.606;8.858;2023-12-20T08:07:35;96521.06;;;3.80;100.00
19023;BME280;35226;48.606;8.858;2023-12-20T08:10:00;96519.50;;;3.79;100.00
19023;BME280;35226;48.606;8.858;2023-12-20T08:12:26;96519.88;;;3.85;100.00
19023;BME280;35226;48.606;8.858;2023-12-20T08:14:53;96521.44;;;3.86;100.00
19023;BME280;35226;48.606;8.858;2023-12-20T08:17:19;96525.34;;;3.85;100.00
19023;BME280;35226;48.606;8.858;2023-12-20T08:19:45;96530.81;;;3.85;100.00
19023;BME280;35226;48.606;8.858;2023-12-20T08:22:11;96533.16;;;3.86;100.00
19023;BME280;35226;48.606;8.858;2023-12-20T08:24:37;96537.47;;;3.80;100.00
19023;BME280;35226;48.606;8.858;2023-12-20T08:27:04;96532.78;;;3.73;100.00
19023;BME280;35226;48.606;8.858;2023-12-20T08:29:29;96546.06;;;3.79;100.00
19023;BME280;35226;48.606;8.858;2023-12-20T08:31:55;96552.69;;;3.78;100.00
19023;BME280;35226;48.606;8.858;2023-12-20T08:34:21;96554.66;;;3.70;100.00
19023;BME280;35226;48.606;8.858;2023-12-20T08:36:47;96554.66;;;3.59;100.00
19023;BME280;35226;48.606;8.858;2023-12-20T08:39:12;96560.09;;;3.63;100.00
19023;BME280;35226;48.606;8.858;2023-12-20T08:41:38;96564.41;;;3.60;100.00
19023;BME280;35226;48.606;8.858;2023-12-20T08:44:04;96561.28;;;3.65;100.00
19023;BME280;35226;48.606;8.858;2023-12-20T08:46:29;96559.34;;;3.66;100.00
19023;BME280;35226;48.606;8.858;2023-12-20T08:48:58;96559.72;;;3.57;100.00
19023;BME280;35226;48.606;8.858;2023-12-20T08:51:23;96571.06;;;3.59;100.00
19023;BME280;35226;48.606;8.858;2023-12-20T08:53:51;96571.03;;;3.56;100.00
19023;BME280;35226;48.606;8.858;2023-12-20T08:56:17;96574.56;;;3.56;100.00
19023;BME280;35226;48.606;8.858;2023-12-20T08:58:44;96580.03;;;3.56;100.00
19023;BME280;35226;48.606;8.858;2023-12-20T09:01:09;96574.16;;;3.58;100.00
19023;BME280;35226;48.606;8.858;2023-12-20T09:03:35;96561.66;;;3.53;100.00
19023;BME280;35226;48.606;8.858;2023-12-20T09:06:00;96557.00;;;3.54;100.00
19023;BME280;35226;48.606;8.858;2023-12-20T09:08:26;96560.13;;;3.52;100.00
19023;BME280;35226;48.606;8.858;2023-12-20T09:10:51;96552.31;;;3.54;100.00
19023;BME280;35226;48.606;8.858;2023-12-20T09:13:17;96557.00;;;3.54;100.00
19023;BME280;35226;48.606;8.858;2023-12-20T09:15:43;96557.41;;;3.49;100.00
19023;BME280;35226;48.606;8.858;2023-12-20T09:18:08;96555.06;;;3.40;100.00
19023;BME280;35226;48.606;8.858;2023-12-20T09:20:34;96554.66;;;3.34;100.00
19023;BME280;35226;48.606;8.858;2023-12-20T09:23:00;96549.59;;;3.29;100.00
19023;BME280;35226;48.606;8.858;2023-12-20T09:25:25;96543.34;;;3.25;100.00
19023;BME280;35226;48.606;8.858;2023-12-20T09:27:57;96547.25;;;3.28;100.00
19023;BME280;35226;48.606;8.858;2023-12-20T09:30:23;96546.47;;;3.34;100.00
19023;BME280;35226;48.606;8.858;2023-12-20T09:32:48;96552.31;;;3.37;100.00
19023;BME280;35226;48.606;8.858;2023-12-20T09:35:14;96543.75;;;3.42;100.00
19023;BME280;35226;48.606;8.858;2023-12-20T09:37:40;96553.50;;;3.50;100.00
19023;BME280;35226;48.606;8.858;2023-12-20T09:40:11;96550.38;;;3.58;100.00
19023;BME280;35226;48.606;8.858;2023-12-20T09:45:20;96549.59;;;3.51;100.00
19023;BME280;35226;48.606;8.858;2023-12-20T09:47:47;96558.19;;;3.49;100.00
19023;BME280;35226;48.606;8.858;2023-12-20T09:50:13;96555.44;;;3.46;100.00
19023;BME280;35226;48.606;8.858;2023-12-20T09:52:39;96556.25;;;3.43;100.00
19023;BME280;35226;48.606;8.858;2023-12-20T09:55:06;96559.34;;;3.38;100.00
19023;BME280;35226;48.606;8.858;2023-12-20T09:57:33;96562.84;;;3.38;100.00
19023;BME280;35226;48.606;8.858;2023-12-20T09:59:59;96572.59;;;3.46;100.00
19023;BME280;35226;48.606;8.858;2023-12-20T10:02:25;96565.59;;;3.56;100.00
19023;BME280;35226;48.606;8.858;2023-12-20T10:04:54;96556.59;;;3.66;100.00
19023;BME280;35226;48.606;8.858;2023-12-20T10:07:19;96562.47;;;3.68;100.00
19023;BME280;35226;48.606;8.858;2023-12-20T10:09:46;96561.28;;;3.72;100.00
19023;BME280;35226;48.606;8.858;2023-12-20T10:12:12;96562.03;;;3.84;100.00
19023;BME280;35226;48.606;8.858;2023-12-20T10:14:41;96557.69;;;4.04;100.00
19023;BME280;35226;48.606;8.858;2023-12-20T10:17:07;96561.16;;;4.26;100.00
19023;BME280;35226;48.606;8.858;2023-12-20T10:19:33;96550.59;;;4.31;100.00
19023;BME280;35226;48.606;8.858;2023-12-20T10:22:04;96544.75;;;4.29;100.00
19023;BME280;35226;48.606;8.858;2023-12-20T10:24:33;96537.66;;;4.46;100.00
19023;BME280;35226;48.606;8.858;2023-12-20T10:27:06;96535.72;;;4.36;100.00
19023;BME280;35226;48.606;8.858;2023-12-20T10:29:35;96525.97;;;4.35;100.00
19023;BME280;35226;48.606;8.858;2023-12-20T10:32:24;96523.19;;;4.49;100.00
19023;BME280;35226;48.606;8.858;2023-12-20T10:34:54;96523.16;;;4.53;100.00
19023;BME280;35226;48.606;8.858;2023-12-20T10:37:20;96525.88;;;4.56;100.00
19023;BME280;35226;48.606;8.858;2023-12-20T10:39:53;96527.88;;;4.49;100.00
19023;BME280;35226;48.606;8.858;2023-12-20T10:42:25;96515.00;;;4.42;100.00
19023;BME280;35226;48.606;8.858;2023-12-20T10:44:51;96516.97;;;4.34;100.00
19023;BME280;35226;48.606;8.858;2023-12-20T10:47:20;96507.63;;;4.28;100.00
19023;BME280;35226;48.606;8.858;2023-12-20T10:49:46;96515.06;;;4.24;100.00
19023;BME280;35226;48.606;8.858;2023-12-20T10:52:12;96519.38;;;4.25;100.00
19023;BME280;35226;48.606;8.858;2023-12-20T10:54:41;96513.88;;;4.29;100.00
19023;BME280;35226;48.606;8.858;2023-12-20T10:57:07;96519.00;;;4.13;100.00
19023;BME280;35226;48.606;8.858;2023-12-20T10:59:34;96515.13;;;4.06;100.00
19023;BME280;35226;48.606;8.858;2023-12-20T11:02:03;96520.22;;;4.08;100.00
19023;BME280;35226;48.606;8.858;2023-12-20T11:10:30;96523.28;;;4.24;100.00
19023;BME280;35226;48.606;8.858;2023-12-20T11:13:10;96529.13;;;4.23;100.00
19023;BME280;35226;48.606;8.858;2023-12-20T11:15:37;96524.81;;;4.29;100.00
19023;BME280;35226;48.606;8.858;2023-12-20T11:18:04;96518.19;;;4.23;100.00
19023;BME280;35226;48.606;8.858;2023-12-20T11:20:41;96515.06;;;4.24;100.00
19023;BME280;35226;48.606;8.858;2023-12-20T11:23:08;96521.38;;;4.11;100.00
19023;BME280;35226;48.606;8.858;2023-12-20T11:25:46;96518.66;;;4.07;100.00
19023;BME280;35226;48.606;8.858;2023-12-20T11:28:12;96504.63;;;4.01;100.00
19023;BME280;35226;48.606;8.858;2023-12-20T11:30:50;96508.50;;;4.04;100.00
19023;BME280;35226;48.606;8.858;2023-12-20T11:33:16;96515.91;;;4.07;100.00
19023;BME280;35226;48.606;8.858;2023-12-20T11:35:42;96508.09;;;4.05;100.00
19023;BME280;35226;48.606;8.858;2023-12-20T11:38:10;96504.19;;;4.06;100.00
19023;BME280;35226;48.606;8.858;2023-12-20T11:40:36;96502.25;;;4.03;100.00
19023;BME280;35226;48.606;8.858;2023-12-20T11:43:02;96499.94;;;3.98;100.00
19023;BME280;35226;48.606;8.858;2023-12-20T11:45:29;96498.75;;;3.92;100.00
19023;BME280;35226;48.606;8.858;2023-12-20T11:47:56;96502.66;;;3.95;100.00
19023;BME280;35226;48.606;8.858;2023-12-20T11:50:23;96504.66;;;3.91;100.00
19023;BME280;35226;48.606;8.858;2023-12-20T11:52:50;96510.91;;;3.91;100.00
19023;BME280;35226;48.606;8.858;2023-12-20T11:55:17;96507.00;;;3.89;100.00
19023;BME280;35226;48.606;8.858;2023-12-20T11:57:43;96516.75;;;3.90;100.00
19023;BME280;35226;48.606;8.858;2023-12-20T12:00:10;96512.44;;;3.92;100.00
19023;BME280;35226;48.606;8.858;2023-12-20T12:02:38;96508.16;;;3.91;100.00
19023;BME280;35226;48.606;8.858;2023-12-20T12:05:04;96504.25;;;3.89;100.00
19023;BME280;35226;48.606;8.858;2023-12-20T12:07:34;96492.94;;;3.90;100.00
19023;BME280;35226;48.606;8.858;2023-12-20T12:10:00;96483.19;;;3.89;100.00
19023;BME280;35226;48.606;8.858;2023-12-20T12:12:26;96487.06;;;3.92;100.00
19023;BME280;35226;48.606;8.858;2023-12-20T12:14:53;96481.59;;;3.95;100.00
19023;BME280;35226;48.606;8.858;2023-12-20T12:17:19;96474.56;;;4.01;100.00
19023;BME280;35226;48.606;8.858;2023-12-20T12:19:45;96470.63;;;4.02;100.00
19023;BME280;35226;48.606;8.858;2023-12-20T12:22:13;96466.72;;;4.03;100.00
19023;BME280;35226;48.606;8.858;2023-12-20T12:24:48;96479.16;;;4.15;100.00
19023;BME280;35226;48.606;8.858;2023-12-20T12:27:15;96472.16;;;4.11;100.00
19023;BME280;35226;48.606;8.858;2023-12-20T12:29:43;96471.00;;;4.08;100.00
19023;BME280;35226;48.606;8.858;2023-12-20T12:32:25;96468.63;;;4.14;100.00
19023;BME280;35226;48.606;8.858;2023-12-20T12:34:50;96459.63;;;4.13;100.00
19023;BME280;35226;48.606;8.858;2023-12-20T12:37:16;96461.97;;;4.18;100.00
19023;BME280;35226;48.606;8.858;2023-12-20T12:39:42;96456.50;;;4.18;100.00
19023;BME280;35226;48.606;8.858;2023-12-20T12:42:07;96451.03;;;4.15;100.00
19023;BME280;35226;48.606;8.858;2023-12-20T12:44:33;96453.81;;;4.11;100.00
19023;BME280;35226;48.606;8.858;2023-12-20T12:46:58;96447.13;;;4.16;100.00
19023;BME280;35226;48.606;8.858;2023-12-20T12:49:24;96441.22;;;4.28;100.00
19023;BME280;35226;48.606;8.858;2023-12-20T12:51:50;96441.19;;;4.31;100.00
19023;BME280;35226;48.606;8.858;2023-12-20T12:54:16;96447.09;;;4.26;100.00
19023;BME280;35226;48.606;8.858;2023-12-20T12:56:43;96443.19;;;4.27;100.00
19023;BME280;35226;48.606;8.858;2023-12-20T12:59:10;96445.91;;;4.31;100.00
19023;BME280;35226;48.606;8.858;2023-12-20T13:01:36;96454.13;;;4.31;100.00
19023;BME280;35226;48.606;8.858;2023-12-20T13:04:02;96451.69;;;4.43;100.00